sensor_id;sensor_type;location;lat;lon;timestamp;temperature;humidity
41318;DHT22;27067;51.554;7.026;2023-11-22T00:01:37;17.50;99.90
41318;DHT22;27067;51.554;7.026;2023-11-22T00:06:29;17.40;99.90
41318;DHT22;27067;51.554;7.026;2023-11-22T00:22:26;17.40;99.90
41318;DHT22;27067;51.554;7.026;2023-11-22T00:24:53;17.40;99.90
41318;DHT22;27067;51.554;7.026;2023-11-22T00:27:19;17.40;99.90
41318;DHT22;27067;51.554;7.026;2023-11-22T00:29:44;17.40;99.90
41318;DHT22;27067;51.554;7.026;2023-11-22T00:32:11;17.40;99.90
41318;DHT22;27067;51.554;7.026;2023-11-22T00:34:37;17.30;99.90
41318;DHT22;27067;51.554;7.026;2023-11-22T00:37:03;17.40;99.90
41318;DHT22;27067;51.554;7.026;2023-11-22T00:39:28;17.30;99.90
41318;DHT22;27067;51.554;7.026;2023-11-22T00:41:54;17.30;99.90
41318;DHT22;27067;51.554;7.026;2023-11-22T00:44:21;17.30;99.90
41318;DHT22;27067;51.554;7.026;2023-11-22T00:46:47;17.10;99.90
41318;DHT22;27067;51.554;7.026;2023-11-22T00:49:12;17.30;99.90
41318;DHT22;27067;51.554;7.026;2023-11-22T00:51:38;17.30;99.90
41318;DHT22;27067;51.554;7.026;2023-11-22T00:54:04;17.30;99.90
41318;DHT22;27067;51.554;7.026;2023-11-22T00:56:30;17.30;99.90
41318;DHT22;27067;51.554;7.026;2023-11-22T00:58:56;17.30;99.90
41318;DHT22;27067;51.554;7.026;2023-11-22T01:01:25;17.30;99.90
41318;DHT22;27067;51.554;7.026;2023-11-22T01:03:51;17.30;99.90
41318;DHT22;27067;51.554;7.026;2023-11-22T01:06:16;17.30;99.90
41318;DHT22;27067;51.554;7.026;2023-11-22T01:08:43;17.30;99.90
41318;DHT22;27067;51.554;7.026;2023-11-22T01:11:09;17.30;99.90
41318;DHT22;27067;51.554;7.026;2023-11-22T01:13:35;17.20;99.90
41318;DHT22;27067;51.554;7.026;2023-11-22T01:16:07;17.20;99.90
41318;DHT22;27067;51.554;7.026;2023-11-22T01:18:33;17.20;99.90
41318;DHT22;27067;51.554;7.026;2023-11-22T01:20:58;17.20;99.90
41318;DHT22;27067;51.554;7.026;2023-11-22T01:23:24;17.20;99.90
41318;DHT22;27067;51.554;7.026;2023-11-22T01:25:50;17.20;99.90
41318;DHT22;27067;51.554;7.026;2023-11-22T01:28:16;17.20;99.90
41318;DHT22;27067;51.554;7.026;2023-11-22T01:30:43;17.40;99.90
41318;DHT22;27067;51.554;7.026;2023-11-22T01:33:11;17.20;99.90
41318;DHT22;27067;51.554;7.026;2023-11-22T01:35:37;17.20;99.90
41318;DHT22;27067;51.554;7.026;2023-11-22T01:38:04;17.20;99.90
41318;DHT22;27067;51.554;7.026;2023-11-22T01:40:30;17.20;99.90
41318;DHT22;27067;51.554;7.026;2023-11-22T01:42:57;17.00;99.90
41318;DHT22;27067;51.554;7.026;2023-11-22T01:45:23;15.50;99.90
41318;DHT22;27067;51.554;7.026;2023-11-22T01:47:48;17.20;99.90
41318;DHT22;27067;51.554;7.026;2023-11-22T01:50:14;17.20;99.90
41318;DHT22;27067;51.554;7.026;2023-11-22T01:55:08;17.00;99.90
41318;DHT22;27067;51.554;7.026;2023-11-22T01:57:36;17.10;99.90
41318;DHT22;27067;51.554;7.026;2023-11-22T02:00:03;17.10;99.90
41318;DHT22;27067;51.554;7.026;2023-11-22T02:02:30;17.10;99.90
41318;DHT22;27067;51.554;7.026;2023-11-22T02:04:56;17.10;99.90
41318;DHT22;27067;51.554;7.026;2023-11-22T02:07:22;17.10;99.90
41318;DHT22;27067;51.554;7.026;2023-11-22T02:09:48;17.10;99.90
41318;DHT22;27067;51.554;7.026;2023-11-22T02:12:15;17.10;99.90
41318;DHT22;27067;51.554;7.026;2023-11-22T02:14:40;17.00;99.90
41318;DHT22;27067;51.554;7.026;2023-11-22T02:17:07;17.10;99.90
41318;DHT22;27067;51.554;7.026;2023-11-22T02:19:32;17.10;99.90
41318;DHT22;27067;51.554;7.026;2023-11-22T02:21:58;17.10;99.90
41318;DHT22;27067;51.554;7.026;2023-11-22T02:24:24;17.10;99.90
41318;DHT22;27067;51.554;7.026;2023-11-22T02:26:50;17.10;99.90
41318;DHT22;27067;51.554;7.026;2023-11-22T02:29:16;17.10;99.90
41318;DHT22;27067;51.554;7.026;2023-11-22T02:31:42;17.00;99.90
41318;DHT22;27067;51.554;7.026;2023-11-22T02:34:11;17.00;99.90
41318;DHT22;27067;51.554;7.026;2023-11-22T02:36:37;17.00;99.90
41318;DHT22;27067;51.554;7.026;2023-11-22T02:39:03;17.00;99.90
41318;DHT22;27067;51.554;7.026;2023-11-22T02:41:29;17.00;99.90
41318;DHT22;27067;51.554;7.026;2023-11-22T02:43:57;17.00;99.90
41318;DHT22;27067;51.554;7.026;2023-11-22T02:46:23;17.00;99.90
41318;DHT22;27067;51.554;7.026;2023-11-22T02:48:49;17.00;99.90
41318;DHT22;27067;51.554;7.026;2023-11-22T02:51:15;17.00;99.90
41318;DHT22;27067;51.554;7.026;2023-11-22T02:53:42;17.10;99.90
41318;DHT22;27067;51.554;7.026;2023-11-22T02:56:11;17.00;99.90
41318;DHT22;27067;51.554;7.026;2023-11-22T02:58:36;17.00;99.90
41318;DHT22;27067;51.554;7.026;2023-11-22T03:01:02;17.00;99.90
41318;DHT22;27067;51.554;7.026;2023-11-22T03:03:29;17.00;99.90
41318;DHT22;27067;51.554;7.026;2023-11-22T03:05:54;17.00;99.90
41318;DHT22;27067;51.554;7.026;2023-11-22T03:08:20;17.00;99.90
41318;DHT22;27067;51.554;7.026;2023-11-22T03:10:46;17.00;99.90
41318;DHT22;27067;51.554;7.026;2023-11-22T03:13:12;17.00;99.90
41318;DHT22;27067;51.554;7.026;2023-11-22T03:15:38;16.90;99.90
41318;DHT22;27067;51.554;7.026;2023-11-22T03:18:04;17.00;99.90
41318;DHT22;27067;51.554;7.026;2023-11-22T03:20:32;17.00;99.90
41318;DHT22;27067;51.554;7.026;2023-11-22T03:22:58;17.00;99.90
41318;DHT22;27067;51.554;7.026;2023-11-22T03:25:24;17.00;99.90
41318;DHT22;27067;51.554;7.026;2023-11-22T03:27:49;17.00;99.90
41318;DHT22;27067;51.554;7.026;2023-11-22T03:30:15;17.00;99.90
41318;DHT22;27067;51.554;7.026;2023-11-22T03:32:41;17.00;99.90
41318;DHT22;27067;51.554;7.026;2023-11-22T03:35:07;17.00;99.90
41318;DHT22;27067;51.554;7.026;2023-11-22T03:37:34;17.00;99.90
41318;DHT22;27067;51.554;7.026;2023-11-22T03:39:59;16.90;99.90
41318;DHT22;27067;51.554;7.026;2023-11-22T03:42:25;17.00;99.90
41318;DHT22;27067;51.554;7.026;2023-11-22T03:44:52;16.90;99.90
41318;DHT22;27067;51.554;7.026;2023-11-22T03:47:18;16.90;99.90
41318;DHT22;27067;51.554;7.026;2023-11-22T03:49:44;16.90;99.90
41318;DHT22;27067;51.554;7.026;2023-11-22T03:52:10;16.90;99.90
41318;DHT22;27067;51.554;7.026;2023-11-22T03:54:37;16.90;99.90
41318;DHT22;27067;51.554;7.026;2023-11-22T03:57:03;16.90;99.90
41318;DHT22;27067;51.554;7.026;2023-11-22T03:59:29;16.90;99.90
41318;DHT22;27067;51.554;7.026;2023-11-22T04:01:54;16.90;99.90
41318;DHT22;27067;51.554;7.026;2023-11-22T04:04:21;16.80;99.90
41318;DHT22;27067;51.554;7.026;2023-11-22T04:06:46;16.90;99.90
41318;DHT22;27067;51.554;7.026;2023-11-22T04:09:12;16.90;99.90
41318;DHT22;27067;51.554;7.026;2023-11-22T04:11:38;16.70;99.90
41318;DHT22;27067;51.554;7.026;2023-11-22T04:14:04;16.90;99.90
41318;DHT22;27067;51.554;7.026;2023-11-22T04:16:30;16.90;99.90
41318;DHT22;27067;51.554;7.026;2023-11-22T04:18:56;16.90;99.90
41318;DHT22;27067;51.554;7.026;2023-11-22T04:21:22;16.90;99.90
41318;DHT22;27067;51.554;7.026;2023-11-22T04:23:48;16.90;99.90
41318;DHT22;27067;51.554;7.026;2023-11-22T04:26:14;16.90;99.90
41318;DHT22;27067;51.554;7.026;2023-11-22T04:28:41;16.90;99.90
41318;DHT22;27067;51.554;7.026;2023-11-22T04:33:39;16.80;99.90
41318;DHT22;27067;51.554;7.026;2023-11-22T04:38:50;16.80;99.90
41318;DHT22;27067;51.554;7.026;2023-11-22T04:41:16;16.80;99.90
41318;DHT22;27067;51.554;7.026;2023-11-22T04:43:44;16.80;99.90
41318;DHT22;27067;51.554;7.026;2023-11-22T04:46:10;16.80;99.90
41318;DHT22;27067;51.554;7.026;2023-11-22T04:48:36;16.80;99.90
41318;DHT22;27067;51.554;7.026;2023-11-22T04:51:05;16.80;99.90
41318;DHT22;27067;51.554;7.026;2023-11-22T04:53:31;16.80;99.90
41318;DHT22;27067;51.554;7.026;2023-11-22T04:55:57;16.80;99.90
41318;DHT22;27067;51.554;7.026;2023-11-22T04:58:24;16.80;99.90
41318;DHT22;27067;51.554;7.026;2023-11-22T05:00:50;16.80;99.90
41318;DHT22;27067;51.554;7.026;2023-11-22T05:03:16;16.80;99.90
41318;DHT22;27067;51.554;7.026;2023-11-22T05:05:41;16.70;99.90
41318;DHT22;27067;51.554;7.026;2023-11-22T05:08:07;16.70;99.90
41318;DHT22;27067;51.554;7.026;2023-11-22T05:10:33;16.70;99.90
41318;DHT22;27067;51.554;7.026;2023-11-22T05:12:59;16.80;99.90
41318;DHT22;27067;51.554;7.026;2023-11-22T05:15:27;16.80;99.90
41318;DHT22;27067;51.554;7.026;2023-11-22T05:17:53;16.80;99.90
41318;DHT22;27067;51.554;7.026;2023-11-22T05:20:18;17.00;99.90
41318;DHT22;27067;51.554;7.026;2023-11-22T05:22:44;17.00;99.90
41318;DHT22;27067;51.554;7.026;2023-11-22T05:25:10;17.10;99.90
41318;DHT22;27067;51.554;7.026;2023-11-22T05:27:36;17.20;99.90
41318;DHT22;27067;51.554;7.026;2023-11-22T05:30:02;17.30;99.90
41318;DHT22;27067;51.554;7.026;2023-11-22T05:32:30;17.40;99.90
41318;DHT22;27067;51.554;7.026;2023-11-22T05:34:57;17.40;99.90
41318;DHT22;27067;51.554;7.026;2023-11-22T05:37:22;17.50;99.90
41318;DHT22;27067;51.554;7.026;2023-11-22T05:39:48;17.50;99.90
41318;DHT22;27067;51.554;7.026;2023-11-22T05:42:14;17.50;99.90
41318;DHT22;27067;51.554;7.026;2023-11-22T05:44:40;17.50;99.90
41318;DHT22;27067;51.554;7.026;2023-11-22T05:47:06;17.50;99.90
41318;DHT22;27067;51.554;7.026;2023-11-22T05:49:33;17.50;99.90
41318;DHT22;27067;51.554;7.026;2023-11-22T05:51:59;17.40;99.90
41318;DHT22;27067;51.554;7.026;2023-11-22T05:54:25;15.10;99.90
41318;DHT22;27067;51.554;7.026;2023-11-22T05:56:50;17.30;99.90
41318;DHT22;27067;51.554;7.026;2023-11-22T05:59:16;17.30;99.90
41318;DHT22;27067;51.554;7.026;2023-11-22T06:01:42;17.30;99.90
41318;DHT22;27067;51.554;7.026;2023-11-22T06:04:07;17.20;99.90
41318;DHT22;27067;51.554;7.026;2023-11-22T06:06:35;17.10;99.90
41318;DHT22;27067;51.554;7.026;2023-11-22T06:09:02;17.20;99.90
41318;DHT22;27067;51.554;7.026;2023-11-22T06:11:27;17.20;99.90
41318;DHT22;27067;51.554;7.026;2023-11-22T06:13:53;17.10;99.90
41318;DHT22;27067;51.554;7.026;2023-11-22T06:16:19;17.10;99.90
41318;DHT22;27067;51.554;7.026;2023-11-22T06:18:45;17.10;99.90
41318;DHT22;27067;51.554;7.026;2023-11-22T06:21:11;17.00;99.90
41318;DHT22;27067;51.554;7.026;2023-11-22T06:23:36;17.00;99.90
41318;DHT22;27067;51.554;7.026;2023-11-22T06:26:02;17.00;99.90
41318;DHT22;27067;51.554;7.026;2023-11-22T06:28:28;17.00;99.90
41318;DHT22;27067;51.554;7.026;2023-11-22T06:30:57;16.90;99.90
41318;DHT22;27067;51.554;7.026;2023-11-22T06:35:49;17.00;99.90
41318;DHT22;27067;51.554;7.026;2023-11-22T06:40:42;16.90;99.90
41318;DHT22;27067;51.554;7.026;2023-11-22T06:43:07;16.80;99.90
41318;DHT22;27067;51.554;7.026;2023-11-22T06:45:33;16.80;99.90
41318;DHT22;27067;51.554;7.026;2023-11-22T06:47:59;16.80;99.90
41318;DHT22;27067;51.554;7.026;2023-11-22T06:50:25;16.80;99.90
41318;DHT22;27067;51.554;7.026;2023-11-22T06:52:50;16.80;99.90
41318;DHT22;27067;51.554;7.026;2023-11-22T06:57:44;16.70;99.90
41318;DHT22;27067;51.554;7.026;2023-11-22T07:00:10;16.70;99.90
41318;DHT22;27067;51.554;7.026;2023-11-22T07:02:38;16.80;99.90
41318;DHT22;27067;51.554;7.026;2023-11-22T07:05:04;16.80;99.90
41318;DHT22;27067;51.554;7.026;2023-11-22T07:07:36;16.90;99.90
41318;DHT22;27067;51.554;7.026;2023-11-22T07:10:02;16.90;99.90
41318;DHT22;27067;51.554;7.026;2023-11-22T07:12:31;17.00;99.90
41318;DHT22;27067;51.554;7.026;2023-11-22T07:14:57;17.00;99.90
41318;DHT22;27067;51.554;7.026;2023-11-22T07:17:22;17.00;99.90
41318;DHT22;27067;51.554;7.026;2023-11-22T07:19:48;17.10;99.90
41318;DHT22;27067;51.554;7.026;2023-11-22T07:22:15;16.90;99.90
41318;DHT22;27067;51.554;7.026;2023-11-22T07:24:48;16.90;99.90
41318;DHT22;27067;51.554;7.026;2023-11-22T07:27:17;16.90;99.90
41318;DHT22;27067;51.554;7.026;2023-11-22T07:29:44;16.90;99.90
41318;DHT22;27067;51.554;7.026;2023-11-22T07:32:11;16.90;99.90
41318;DHT22;27067;51.554;7.026;2023-11-22T07:34:39;16.80;99.90
41318;DHT22;27067;51.554;7.026;2023-11-22T07:37:06;16.80;99.90
41318;DHT22;27067;51.554;7.026;2023-11-22T07:39:35;16.80;99.90
41318;DHT22;27067;51.554;7.026;2023-11-22T07:42:05;16.80;99.90
41318;DHT22;27067;51.554;7.026;2023-11-22T07:44:34;16.80;99.90
41318;DHT22;27067;51.554;7.026;2023-11-22T07:47:02;16.80;99.90
41318;DHT22;27067;51.554;7.026;2023-11-22T07:49:27;16.80;99.90
41318;DHT22;27067;51.554;7.026;2023-11-22T07:51:54;16.80;99.90
41318;DHT22;27067;51.554;7.026;2023-11-22T07:54:22;16.70;99.90
41318;DHT22;27067;51.554;7.026;2023-11-22T07:56:51;16.70;99.90
41318;DHT22;27067;51.554;7.026;2023-11-22T07:59:20;16.70;99.90
41318;DHT22;27067;51.554;7.026;2023-11-22T08:01:45;16.70;99.90
41318;DHT22;27067;51.554;7.026;2023-11-22T08:04:13;16.80;99.90
41318;DHT22;27067;51.554;7.026;2023-11-22T08:06:39;16.80;99.90
41318;DHT22;27067;51.554;7.026;2023-11-22T08:09:05;16.80;99.90
41318;DHT22;27067;51.554;7.026;2023-11-22T08:11:31;16.80;99.90
41318;DHT22;27067;51.554;7.026;2023-11-22T08:13:57;16.70;99.90
41318;DHT22;27067;51.554;7.026;2023-11-22T08:16:28;16.70;99.90
41318;DHT22;27067;51.554;7.026;2023-11-22T08:18:54;16.70;99.90
41318;DHT22;27067;51.554;7.026;2023-11-22T08:21:19;16.70;99.90
41318;DHT22;27067;51.554;7.026;2023-11-22T08:23:48;16.70;99.90
41318;DHT22;27067;51.554;7.026;2023-11-22T08:26:14;16.70;99.90
41318;DHT22;27067;51.554;7.026;2023-11-22T08:28:40;16.60;99.90
41318;DHT22;27067;51.554;7.026;2023-11-22T08:31:06;16.60;99.90
41318;DHT22;27067;51.554;7.026;2023-11-22T08:33:38;16.60;99.90
41318;DHT22;27067;51.554;7.026;2023-11-22T08:36:06;16.60;99.90
41318;DHT22;27067;51.554;7.026;2023-11-22T08:38:32;16.50;99.90
41318;DHT22;27067;51.554;7.026;2023-11-22T08:41:01;16.50;99.90
41318;DHT22;27067;51.554;7.026;2023-11-22T08:43:28;17.20;99.90
41318;DHT22;27067;51.554;7.026;2023-11-22T08:45:54;16.50;99.90
41318;DHT22;27067;51.554;7.026;2023-11-22T08:48:19;16.50;99.90
41318;DHT22;27067;51.554;7.026;2023-11-22T08:50:45;16.50;99.90
41318;DHT22;27067;51.554;7.026;2023-11-22T08:53:13;16.50;99.90
41318;DHT22;27067;51.554;7.026;2023-11-22T08:55:40;16.40;99.90
41318;DHT22;27067;51.554;7.026;2023-11-22T08:58:10;16.50;99.90
41318;DHT22;27067;51.554;7.026;2023-11-22T09:00:36;16.40;99.90
41318;DHT22;27067;51.554;7.026;2023-11-22T09:03:02;16.40;99.90
41318;DHT22;27067;51.554;7.026;2023-11-22T09:05:29;16.40;99.90
41318;DHT22;27067;51.554;7.026;2023-11-22T09:07:54;16.40;99.90
41318;DHT22;27067;51.554;7.026;2023-11-22T09:10:24;16.40;99.90
41318;DHT22;27067;51.554;7.026;2023-11-22T09:12:50;16.40;99.90
41318;DHT22;27067;51.554;7.026;2023-11-22T09:15:17;16.50;99.90
41318;DHT22;27067;51.554;7.026;2023-11-22T09:17:44;16.40;99.90
41318;DHT22;27067;51.554;7.026;2023-11-22T09:20:15;16.40;99.90
41318;DHT22;27067;51.554;7.026;2023-11-22T09:22:49;16.40;99.90
41318;DHT22;27067;51.554;7.026;2023-11-22T09:25:17;16.40;99.90
41318;DHT22;27067;51.554;7.026;2023-11-22T09:27:45;16.40;99.90
41318;DHT22;27067;51.554;7.026;2023-11-22T09:30:16;16.30;99.90
41318;DHT22;27067;51.554;7.026;2023-11-22T09:33:05;16.40;99.90
41318;DHT22;27067;51.554;7.026;2023-11-22T09:35:32;16.30;99.90
41318;DHT22;27067;51.554;7.026;2023-11-22T09:38:03;16.40;99.90
41318;DHT22;27067;51.554;7.026;2023-11-22T09:40:29;16.40;99.90
41318;DHT22;27067;51.554;7.026;2023-11-22T09:42:58;16.40;99.90
41318;DHT22;27067;51.554;7.026;2023-11-22T09:45:24;16.30;99.90
41318;DHT22;27067;51.554;7.026;2023-11-22T09:47:51;16.40;99.90
41318;DHT22;27067;51.554;7.026;2023-11-22T09:50:25;16.40;99.90
41318;DHT22;27067;51.554;7.026;2023-11-22T09:52:52;16.40;99.90
41318;DHT22;27067;51.554;7.026;2023-11-22T09:55:21;16.40;99.90
41318;DHT22;27067;51.554;7.026;2023-11-22T09:57:51;16.40;99.90
41318;DHT22;27067;51.554;7.026;2023-11-22T10:00:19;16.40;99.90
41318;DHT22;27067;51.554;7.026;2023-11-22T10:02:47;16.40;99.90
41318;DHT22;27067;51.554;7.026;2023-11-22T10:05:13;16.40;99.90
41318;DHT22;27067;51.554;7.026;2023-11-22T10:07:39;16.40;99.90
41318;DHT22;27067;51.554;7.026;2023-11-22T10:10:05;16.40;99.90
41318;DHT22;27067;51.554;7.026;2023-11-22T10:12:32;16.40;99.90
41318;DHT22;27067;51.554;7.026;2023-11-22T10:15:12;16.40;99.90
41318;DHT22;27067;51.554;7.026;2023-11-22T10:17:38;16.30;99.90
41318;DHT22;27067;51.554;7.026;2023-11-22T10:20:05;16.30;99.90
41318;DHT22;27067;51.554;7.026;2023-11-22T10:22:44;16.30;99.90
41318;DHT22;27067;51.554;7.026;2023-11-22T10:25:11;16.30;99.90
41318;DHT22;27067;51.554;7.026;2023-11-22T10:27:38;16.30;99.90
41318;DHT22;27067;51.554;7.026;2023-11-22T10:30:05;16.30;99.90
41318;DHT22;27067;51.554;7.026;2023-11-22T10:32:31;16.30;99.90
41318;DHT22;27067;51.554;7.026;2023-11-22T10:34:56;16.30;99.90
41318;DHT22;27067;51.554;7.026;2023-11-22T10:37:23;16.30;99.90
41318;DHT22;27067;51.554;7.026;2023-11-22T10:39:51;16.30;99.90
41318;DHT22;27067;51.554;7.026;2023-11-22T10:42:18;16.30;99.90
41318;DHT22;27067;51.554;7.026;2023-11-22T10:44:46;16.20;99.90
41318;DHT22;27067;51.554;7.026;2023-11-22T10:47:15;16.30;99.90
41318;DHT22;27067;51.554;7.026;2023-11-22T10:49:43;16.20;99.90
41318;DHT22;27067;51.554;7.026;2023-11-22T10:52:13;16.20;99.90
41318;DHT22;27067;51.554;7.026;2023-11-22T10:54:44;16.20;99.90
41318;DHT22;27067;51.554;7.026;2023-11-22T10:57:16;16.20;99.90
41318;DHT22;27067;51.554;7.026;2023-11-22T10:59:43;16.20;99.90
41318;DHT22;27067;51.554;7.026;2023-11-22T11:02:16;16.20;99.90
41318;DHT22;27067;51.554;7.026;2023-11-22T11:04:48;16.20;99.90
41318;DHT22;27067;51.554;7.026;2023-11-22T11:07:17;16.20;99.90
41318;DHT22;27067;51.554;7.026;2023-11-22T11:09:49;16.20;99.90
41318;DHT22;27067;51.554;7.026;2023-11-22T11:12:17;16.30;99.90
41318;DHT22;27067;51.554;7.026;2023-11-22T11:14:44;16.20;99.90
41318;DHT22;27067;51.554;7.026;2023-11-22T11:17:13;16.20;99.90
41318;DHT22;27067;51.554;7.026;2023-11-22T11:19:40;16.20;99.90
41318;DHT22;27067;51.554;7.026;2023-11-22T11:22:11;16.20;99.90
41318;DHT22;27067;51.554;7.026;2023-11-22T11:24:40;16.20;99.90
41318;DHT22;27067;51.554;7.026;2023-11-22T11:27:07;16.20;99.90
41318;DHT22;27067;51.554;7.026;2023-11-22T11:29:36;16.20;99.90
41318;DHT22;27067;51.554;7.026;2023-11-22T11:32:03;16.20;99.90
41318;DHT22;27067;51.554;7.026;2023-11-22T11:34:29;16.20;99.90
41318;DHT22;27067;51.554;7.026;2023-11-22T11:36:56;16.10;99.90
41318;DHT22;27067;51.554;7.026;2023-11-22T11:39:27;16.10;99.90
41318;DHT22;27067;51.554;7.026;2023-11-22T11:42:12;16.10;99.90
41318;DHT22;27067;51.554;7.026;2023-11-22T11:45:04;16.10;99.90
41318;DHT22;27067;51.554;7.026;2023-11-22T11:47:33;16.10;99.90
41318;DHT22;27067;51.554;7.026;2023-11-22T11:49:59;16.10;99.90
41318;DHT22;27067;51.554;7.026;2023-11-22T11:52:27;16.10;99.90
41318;DHT22;27067;51.554;7.026;2023-11-22T11:54:53;16.10;99.90
41318;DHT22;27067;51.554;7.026;2023-11-22T11:57:19;16.20;99.90
41318;DHT22;27067;51.554;7.026;2023-11-22T11:59:45;13.90;99.90
41318;DHT22;27067;51.554;7.026;2023-11-22T12:02:12;16.10;99.90
41318;DHT22;27067;51.554;7.026;2023-11-22T12:04:37;16.10;99.90
41318;DHT22;27067;51.554;7.026;2023-11-22T12:07:08;16.10;99.90
41318;DHT22;27067;51.554;7.026;2023-11-22T12:09:33;16.10;99.90
41318;DHT22;27067;51.554;7.026;2023-11-22T12:12:01;16.10;99.90
41318;DHT22;27067;51.554;7.026;2023-11-22T12:14:28;16.00;99.90
41318;DHT22;27067;51.554;7.026;2023-11-22T12:16:54;16.00;99.90
41318;DHT22;27067;51.554;7.026;2023-11-22T12:19:24;16.10;99.90
41318;DHT22;27067;51.554;7.026;2023-11-22T12:21:52;16.10;99.90
41318;DHT22;27067;51.554;7.026;2023-11-22T12:24:18;16.10;99.90
41318;DHT22;27067;51.554;7.026;2023-11-22T12:26:45;16.00;99.90
41318;DHT22;27067;51.554;7.026;2023-11-22T12:29:14;16.10;99.90
41318;DHT22;27067;51.554;7.026;2023-11-22T12:31:51;16.10;99.90
41318;DHT22;27067;51.554;7.026;2023-11-22T12:34:20;16.10;99.90
41318;DHT22;27067;51.554;7.026;2023-11-22T12:36:47;16.10;99.90
41318;DHT22;27067;51.554;7.026;2023-11-22T12:39:14;16.10;99.90
41318;DHT22;27067;51.554;7.026;2023-11-22T12:41:53;16.10;99.90
41318;DHT22;27067;51.554;7.026;2023-11-22T12:44:20;16.10;99.90
41318;DHT22;27067;51.554;7.026;2023-11-22T12:46:52;16.10;99.90
41318;DHT22;27067;51.554;7.026;2023-11-22T12:49:28;16.10;99.90
41318;DHT22;27067;51.554;7.026;2023-11-22T12:51:56;16.20;99.90
41318;DHT22;27067;51.554;7.026;2023-11-22T12:54:23;16.10;99.90
41318;DHT22;27067;51.554;7.026;2023-11-22T12:56:52;16.20;99.90
41318;DHT22;27067;51.554;7.026;2023-11-22T13:01:54;16.20;99.90
41318;DHT22;27067;51.554;7.026;2023-11-22T13:04:20;16.10;99.90
41318;DHT22;27067;51.554;7.026;2023-11-22T13:11:42;16.10;99.90
41318;DHT22;27067;51.554;7.026;2023-11-22T13:14:12;16.10;99.90
41318;DHT22;27067;51.554;7.026;2023-11-22T13:16:41;16.20;99.90
41318;DHT22;27067;51.554;7.026;2023-11-22T13:19:07;16.20;99.90
41318;DHT22;27067;51.554;7.026;2023-11-22T13:21:34;16.20;99.90
41318;DHT22;27067;51.554;7.026;2023-11-22T13:24:01;16.20;99.90
41318;DHT22;27067;51.554;7.026;2023-11-22T13:26:27;16.10;99.90
41318;DHT22;27067;51.554;7.026;2023-11-22T13:31:20;16.10;99.90
41318;DHT22;27067;51.554;7.026;2023-11-22T13:33:49;16.10;99.90
41318;DHT22;27067;51.554;7.026;2023-11-22T13:36:16;16.10;99.90
41318;DHT22;27067;51.554;7.026;2023-11-22T13:38:41;16.10;99.90
41318;DHT22;27067;51.554;7.026;2023-11-22T13:41:07;16.10;99.90
41318;DHT22;27067;51.554;7.026;2023-11-22T13:46:00;16.10;99.90
41318;DHT22;27067;51.554;7.026;2023-11-22T13:48:26;16.10;99.90
41318;DHT22;27067;51.554;7.026;2023-11-22T13:50:52;16.10;99.90
41318;DHT22;27067;51.554;7.026;2023-11-22T13:53:17;16.10;99.90
41318;DHT22;27067;51.554;7.026;2023-11-22T13:55:48;16.10;99.90
41318;DHT22;27067;51.554;7.026;2023-11-22T13:58:16;16.00;99.90
41318;DHT22;27067;51.554;7.026;2023-11-22T14:00:42;16.00;99.90
41318;DHT22;27067;51.554;7.026;2023-11-22T14:03:08;16.00;99.90
41318;DHT22;27067;51.554;7.026;2023-11-22T14:05:36;16.00;99.90
41318;DHT22;27067;51.554;7.026;2023-11-22T14:08:04;16.10;99.90
41318;DHT22;27067;51.554;7.026;2023-11-22T14:10:31;16.00;99.90
41318;DHT22;27067;51.554;7.026;2023-11-22T14:12:58;16.00;99.90
41318;DHT22;27067;51.554;7.026;2023-11-22T14:15:26;16.00;99.90
41318;DHT22;27067;51.554;7.026;2023-11-22T14:17:55;16.00;99.90
41318;DHT22;27067;51.554;7.026;2023-11-22T14:20:21;16.00;99.90
41318;DHT22;27067;51.554;7.026;2023-11-22T14:22:47;15.90;99.90
41318;DHT22;27067;51.554;7.026;2023-11-22T14:27:46;15.90;99.90
41318;DHT22;27067;51.554;7.026;2023-11-22T14:35:12;17.50;99.90
41318;DHT22;27067;51.554;7.026;2023-11-22T14:40:11;15.90;99.90
41318;DHT22;27067;51.554;7.026;2023-11-22T14:42:43;15.90;99.90
41318;DHT22;27067;51.554;7.026;2023-11-22T14:45:17;15.90;99.90
41318;DHT22;27067;51.554;7.026;2023-11-22T14:50:14;15.90;99.90
41318;DHT22;27067;51.554;7.026;2023-11-22T14:52:41;15.80;99.90
41318;DHT22;27067;51.554;7.026;2023-11-22T14:57:36;15.80;99.90
41318;DHT22;27067;51.554;7.026;2023-11-22T15:07:24;15.80;99.90
41318;DHT22;27067;51.554;7.026;2023-11-22T15:29:49;15.80;99.90
41318;DHT22;27067;51.554;7.026;2023-11-22T15:32:15;15.80;99.90
41318;DHT22;27067;51.554;7.026;2023-11-22T15:34:41;15.70;99.90
41318;DHT22;27067;51.554;7.026;2023-11-22T15:37:06;15.70;99.90
41318;DHT22;27067;51.554;7.026;2023-11-22T15:39:32;15.70;99.90
41318;DHT22;27067;51.554;7.026;2023-11-22T15:41:59;15.80;99.90
41318;DHT22;27067;51.554;7.026;2023-11-22T15:44:25;18.50;99.90
41318;DHT22;27067;51.554;7.026;2023-11-22T15:46:51;15.70;99.90
41318;DHT22;27067;51.554;7.026;2023-11-22T15:49:17;15.70;99.90
41318;DHT22;27067;51.554;7.026;2023-11-22T15:51:43;15.70;99.90
41318;DHT22;27067;51.554;7.026;2023-11-22T15:54:08;15.70;99.90
41318;DHT22;27067;51.554;7.026;2023-11-22T15:56:34;15.70;99.90
41318;DHT22;27067;51.554;7.026;2023-11-22T15:59:00;15.70;99.90
41318;DHT22;27067;51.554;7.026;2023-11-22T16:01:30;14.70;99.90
41318;DHT22;27067;51.554;7.026;2023-11-22T16:03:56;15.70;99.90
41318;DHT22;27067;51.554;7.026;2023-11-22T16:06:22;15.70;99.90
41318;DHT22;27067;51.554;7.026;2023-11-22T16:08:53;15.70;99.90
41318;DHT22;27067;51.554;7.026;2023-11-22T16:11:20;15.80;99.90
41318;DHT22;27067;51.554;7.026;2023-11-22T16:13:46;15.80;99.90
41318;DHT22;27067;51.554;7.026;2023-11-22T16:16:13;16.00;99.90
41318;DHT22;27067;51.554;7.026;2023-11-22T16:18:39;16.10;99.90
41318;DHT22;27067;51.554;7.026;2023-11-22T16:21:06;16.20;99.90
41318;DHT22;27067;51.554;7.026;2023-11-22T16:23:33;16.20;99.90
41318;DHT22;27067;51.554;7.026;2023-11-22T16:26:02;16.20;99.80
41318;DHT22;27067;51.554;7.026;2023-11-22T16:28:29;16.30;99.90
41318;DHT22;27067;51.554;7.026;2023-11-22T16:30:56;16.30;99.70
41318;DHT22;27067;51.554;7.026;2023-11-22T16:33:22;16.30;99.20
41318;DHT22;27067;51.554;7.026;2023-11-22T16:35:47;16.30;99.10
41318;DHT22;27067;51.554;7.026;2023-11-22T16:38:13;16.30;99.30
41318;DHT22;27067;51.554;7.026;2023-11-22T16:40:39;16.30;99.30
41318;DHT22;27067;51.554;7.026;2023-11-22T16:43:06;16.30;99.20
41318;DHT22;27067;51.554;7.026;2023-11-22T16:45:31;16.30;99.20
41318;DHT22;27067;51.554;7.026;2023-11-22T16:47:57;16.30;99.40
41318;DHT22;27067;51.554;7.026;2023-11-22T16:50:23;16.20;99.10
41318;DHT22;27067;51.554;7.026;2023-11-22T16:52:49;16.20;99.10
41318;DHT22;27067;51.554;7.026;2023-11-22T16:55:15;17.20;99.20